createdAt,value
2023-05-24T00:01:59.915Z,21.11
2023-05-24T00:04:30.442Z,21.09
2023-05-24T00:06:58.176Z,21.09
2023-05-24T00:09:24.826Z,21.09
2023-05-24T00:11:51.438Z,21.08
2023-05-24T00:14:18.032Z,21.08
2023-05-24T00:16:46.483Z,21.06
2023-05-24T00:19:18.297Z,21.05
2023-05-24T00:21:46.107Z,21.05
2023-05-24T00:24:12.793Z,21.04
2023-05-24T00:26:39.680Z,21.04
2023-05-24T00:29:06.836Z,21.02
2023-05-24T00:31:33.500Z,21.02
2023-05-24T00:34:00.325Z,21.00
2023-05-24T00:36:27.108Z,20.99
2023-05-24T00:38:53.962Z,20.99
2023-05-24T00:41:20.730Z,20.99
2023-05-24T00:43:47.323Z,20.97
2023-05-24T00:46:28.795Z,20.95
2023-05-24T00:48:55.782Z,20.95
2023-05-24T00:51:23.017Z,20.94
2023-05-24T00:53:50.076Z,20.94
2023-05-24T00:56:17.668Z,20.93
2023-05-24T00:58:45.240Z,20.92
2023-05-24T01:01:12.146Z,20.90
2023-05-24T01:03:39.522Z,20.91
2023-05-24T01:06:07.950Z,20.90
2023-05-24T01:09:04.120Z,20.89
2023-05-24T01:11:58.255Z,20.88
2023-05-24T01:14:53.505Z,20.86
2023-05-24T01:17:26.594Z,20.86
2023-05-24T01:19:59.955Z,20.85
2023-05-24T01:22:42.238Z,20.85
2023-05-24T01:25:30.536Z,20.84
2023-05-24T01:27:58.713Z,20.84
2023-05-24T01:30:27.950Z,20.82
2023-05-24T01:32:54.606Z,20.82
2023-05-24T01:35:21.857Z,20.82
2023-05-24T01:37:48.456Z,20.81
2023-05-24T01:40:15.949Z,20.80
2023-05-24T01:42:52.315Z,20.79
2023-05-24T01:45:57.525Z,20.78
2023-05-24T01:48:54.618Z,20.77
2023-05-24T01:51:25.044Z,20.78
2023-05-24T01:53:52.912Z,20.78
2023-05-24T01:56:20.742Z,20.76
2023-05-24T01:58:50.602Z,20.76
2023-05-24T02:01:18.002Z,20.76
2023-05-24T02:03:44.876Z,20.75
2023-05-24T02:06:11.566Z,20.75
2023-05-24T02:08:38.346Z,20.74
2023-05-24T02:11:04.931Z,20.73
2023-05-24T02:13:31.587Z,20.73
2023-05-24T02:15:58.233Z,20.73
2023-05-24T02:18:24.803Z,20.72
2023-05-24T02:20:51.403Z,20.71
2023-05-24T02:23:18.002Z,20.69
2023-05-24T02:25:44.713Z,20.69
2023-05-24T02:28:11.289Z,20.68
2023-05-24T02:30:38.486Z,20.67
2023-05-24T02:33:05.517Z,20.67
2023-05-24T02:35:33.605Z,20.66
2023-05-24T02:38:01.560Z,20.66
2023-05-24T02:40:28.171Z,20.65
2023-05-24T02:42:54.786Z,20.65
2023-05-24T02:45:21.364Z,20.64
2023-05-24T02:47:47.959Z,20.63
2023-05-24T02:50:14.537Z,20.64
2023-05-24T02:52:41.543Z,20.62
2023-05-24T02:55:08.588Z,20.62
2023-05-24T02:57:35.582Z,20.60
2023-05-24T03:00:02.260Z,20.60
2023-05-24T03:02:29.303Z,20.59
2023-05-24T03:04:56.090Z,20.59
2023-05-24T03:07:22.672Z,20.59
2023-05-24T03:09:49.246Z,20.58
2023-05-24T03:12:15.903Z,20.57
2023-05-24T03:14:42.445Z,20.55
2023-05-24T03:17:09.017Z,20.55
2023-05-24T03:19:35.668Z,20.55
2023-05-24T03:22:02.274Z,20.55
2023-05-24T03:24:28.870Z,20.54
2023-05-24T03:26:55.427Z,20.53
2023-05-24T03:29:22.014Z,20.51
2023-05-24T03:31:48.799Z,20.51
2023-05-24T03:34:15.656Z,20.50
2023-05-24T03:36:42.238Z,20.48
2023-05-24T03:39:09.369Z,20.49
2023-05-24T03:41:36.118Z,20.49
2023-05-24T03:44:02.681Z,20.48
2023-05-24T03:46:29.298Z,20.48
2023-05-24T03:48:55.944Z,20.46
2023-05-24T03:51:29.806Z,20.46
2023-05-24T03:53:57.465Z,20.45
2023-05-24T03:56:24.608Z,20.45
2023-05-24T03:58:52.329Z,20.45
2023-05-24T04:01:32.564Z,20.44
2023-05-24T04:04:01.485Z,20.44
2023-05-24T04:06:29.445Z,20.43
2023-05-24T04:08:57.780Z,20.45
2023-05-24T04:11:28.162Z,20.43
2023-05-24T04:13:55.993Z,20.44
2023-05-24T04:16:26.580Z,20.44
2023-05-24T04:18:57.082Z,20.43
2023-05-24T04:21:24.099Z,20.44
2023-05-24T04:23:50.677Z,20.45
2023-05-24T04:26:17.825Z,20.46
2023-05-24T04:28:45.641Z,20.46
2023-05-24T04:31:12.444Z,20.47
2023-05-24T04:33:39.689Z,20.48
2023-05-24T04:36:06.523Z,20.48
2023-05-24T04:38:34.555Z,20.49
2023-05-24T04:41:01.230Z,20.50
2023-05-24T04:43:28.583Z,20.51
2023-05-24T04:45:55.572Z,20.52
2023-05-24T04:48:24.326Z,20.53
2023-05-24T04:50:52.548Z,20.55
2023-05-24T04:53:20.203Z,20.56
2023-05-24T04:55:47.780Z,20.59
2023-05-24T04:58:14.638Z,20.60
2023-05-24T05:00:41.470Z,20.62
2023-05-24T05:03:08.745Z,20.63
2023-05-24T05:05:35.730Z,20.65
2023-05-24T05:08:03.673Z,20.66
2023-05-24T05:10:30.414Z,20.68
2023-05-24T05:12:57.010Z,20.70
2023-05-24T05:15:24.285Z,20.73
2023-05-24T05:17:51.225Z,20.75
2023-05-24T05:20:17.989Z,20.76
2023-05-24T05:22:48.511Z,20.80
2023-05-24T05:25:15.595Z,20.81
2023-05-24T05:27:42.236Z,20.84
2023-05-24T05:30:09.389Z,20.85
2023-05-24T05:32:36.716Z,20.90
2023-05-24T05:35:04.035Z,20.90
2023-05-24T05:37:31.301Z,20.93
2023-05-24T05:39:58.097Z,20.96
2023-05-24T05:42:24.869Z,20.98
2023-05-24T05:44:52.711Z,21.01
2023-05-24T05:47:19.593Z,21.03
2023-05-24T05:49:46.191Z,21.05
2023-05-24T05:52:12.861Z,21.07
2023-05-24T05:54:39.496Z,21.08
2023-05-24T05:57:08.208Z,21.09
2023-05-24T05:59:36.253Z,21.11
2023-05-24T06:02:06.923Z,21.11
2023-05-24T06:04:34.116Z,21.12
2023-05-24T06:07:00.964Z,21.13
2023-05-24T06:09:27.580Z,21.13
2023-05-24T06:11:54.225Z,21.13
2023-05-24T06:14:22.289Z,21.14
2023-05-24T06:16:49.278Z,21.15
2023-05-24T06:19:16.686Z,21.14
2023-05-24T06:21:47.790Z,21.15
2023-05-24T06:24:15.697Z,21.16
2023-05-24T06:26:42.752Z,21.16
2023-05-24T06:29:09.802Z,21.16
2023-05-24T06:31:36.438Z,21.16
2023-05-24T06:34:04.652Z,21.15
2023-05-24T06:36:36.010Z,21.16
2023-05-24T06:39:03.424Z,21.17
2023-05-24T06:41:30.265Z,21.17
2023-05-24T06:43:56.790Z,21.17
2023-05-24T06:46:23.422Z,21.16
2023-05-24T06:48:50.074Z,21.16
2023-05-24T06:51:17.262Z,21.16
2023-05-24T06:53:44.564Z,21.16
2023-05-24T06:56:11.259Z,21.16
2023-05-24T06:58:37.966Z,21.16
2023-05-24T07:01:05.207Z,21.15
2023-05-24T07:03:32.490Z,21.15
2023-05-24T07:05:59.284Z,21.15
2023-05-24T07:08:25.908Z,21.14
2023-05-24T07:10:53.980Z,21.15
2023-05-24T07:13:20.604Z,21.15
2023-05-24T07:15:47.444Z,21.15
2023-05-24T07:18:14.380Z,21.15
2023-05-24T07:20:41.513Z,21.16
2023-05-24T07:23:08.570Z,21.15
2023-05-24T07:25:35.122Z,21.16
2023-05-24T07:28:01.717Z,21.16
2023-05-24T07:30:32.484Z,21.17
2023-05-24T07:33:01.579Z,21.17
2023-05-24T07:35:29.434Z,21.17
2023-05-24T07:37:56.480Z,21.18
2023-05-24T07:40:23.281Z,21.17
2023-05-24T07:42:50.268Z,21.18
2023-05-24T07:45:16.963Z,21.18
2023-05-24T07:47:43.655Z,21.18
2023-05-24T07:50:10.681Z,21.18
2023-05-24T07:52:38.823Z,21.18
2023-05-24T07:55:06.645Z,21.20
2023-05-24T07:57:33.665Z,21.21
2023-05-24T08:00:07.177Z,21.22
2023-05-24T08:02:34.932Z,21.23
2023-05-24T08:05:01.642Z,21.24
2023-05-24T08:07:28.977Z,21.24
2023-05-24T08:09:55.654Z,21.25
2023-05-24T08:12:22.328Z,21.25
2023-05-24T08:14:48.888Z,21.28
2023-05-24T08:17:15.491Z,21.28
2023-05-24T08:19:42.069Z,21.30
2023-05-24T08:22:08.647Z,21.31
2023-05-24T08:24:35.313Z,21.32
2023-05-24T08:27:02.854Z,21.33
2023-05-24T08:29:29.802Z,21.35
2023-05-24T08:31:56.577Z,21.35
2023-05-24T08:34:23.225Z,21.37
2023-05-24T08:36:50.083Z,21.37
2023-05-24T08:39:16.715Z,21.37
2023-05-24T08:41:44.496Z,21.39
2023-05-24T08:44:13.577Z,21.41
2023-05-24T08:46:40.285Z,21.42
2023-05-24T08:49:09.158Z,21.43
2023-05-24T08:51:38.547Z,21.44
2023-05-24T08:54:05.818Z,21.47
2023-05-24T08:56:33.734Z,21.49
2023-05-24T08:59:00.528Z,21.49
2023-05-24T09:01:30.532Z,21.53
2023-05-24T09:06:25.622Z,21.57
2023-05-24T09:08:53.947Z,21.59
2023-05-24T09:11:22.917Z,21.61
2023-05-24T09:13:49.875Z,21.64
2023-05-24T09:16:16.999Z,21.67
2023-05-24T09:18:43.696Z,21.70
2023-05-24T09:21:13.400Z,21.74
2023-05-24T09:23:41.578Z,21.77
2023-05-24T09:26:09.688Z,21.80
2023-05-24T09:28:37.304Z,21.83
2023-05-24T09:31:07.331Z,21.90
2023-05-24T09:33:35.472Z,21.94
2023-05-24T09:36:04.559Z,21.98
2023-05-24T09:38:31.212Z,22.01
2023-05-24T09:41:00.498Z,22.03
2023-05-24T09:43:27.148Z,22.06
2023-05-24T09:45:55.813Z,22.07
2023-05-24T09:48:22.400Z,22.09
2023-05-24T09:51:11.694Z,22.09
2023-05-24T09:53:38.656Z,22.13
2023-05-24T09:56:09.952Z,22.15
2023-05-24T09:58:36.929Z,22.16
2023-05-24T10:01:07.978Z,22.21
2023-05-24T10:03:37.434Z,22.21
2023-05-24T10:06:07.573Z,22.21
2023-05-24T10:08:36.195Z,22.22
2023-05-24T10:11:06.942Z,22.22
2023-05-24T10:13:36.565Z,22.22
2023-05-24T10:16:03.912Z,22.22
2023-05-24T10:18:30.619Z,22.22
2023-05-24T10:21:01.834Z,22.21
2023-05-24T10:23:31.100Z,22.21
2023-05-24T10:26:06.568Z,22.21
2023-05-24T10:28:36.939Z,22.21
2023-05-24T10:31:12.942Z,22.21
2023-05-24T10:33:42.812Z,22.22
2023-05-24T10:36:13.039Z,22.24
2023-05-24T10:38:40.575Z,22.25
2023-05-24T10:41:08.475Z,22.28
2023-05-24T10:43:38.426Z,22.28
2023-05-24T10:46:08.494Z,22.29
2023-05-24T10:48:37.088Z,22.30
2023-05-24T10:51:37.182Z,22.30
2023-05-24T10:54:13.753Z,22.33
2023-05-24T10:56:42.856Z,22.38
2023-05-24T10:59:09.466Z,22.40
2023-05-24T11:01:36.469Z,22.44
2023-05-24T11:04:12.005Z,22.45
2023-05-24T11:06:58.229Z,22.46
2023-05-24T11:09:26.368Z,22.47
2023-05-24T11:12:00.000Z,22.48
2023-05-24T11:14:27.775Z,22.49
2023-05-24T11:16:55.219Z,22.52
2023-05-24T11:19:35.626Z,22.53
2023-05-24T11:22:04.907Z,22.55
2023-05-24T11:24:32.750Z,22.56
2023-05-24T11:27:02.187Z,22.56
2023-05-24T11:29:30.078Z,22.56
2023-05-24T11:32:01.360Z,22.58
2023-05-24T11:34:28.192Z,22.57
2023-05-24T11:36:55.560Z,22.58
2023-05-24T11:39:23.773Z,22.59
2023-05-24T11:41:50.734Z,22.59
2023-05-24T11:44:21.486Z,22.60
2023-05-24T11:46:48.228Z,22.61
2023-05-24T11:49:17.959Z,22.60
2023-05-24T11:51:44.777Z,22.61
2023-05-24T11:54:11.975Z,22.60
2023-05-24T11:56:38.889Z,22.61
2023-05-24T11:59:16.065Z,22.60
2023-05-24T12:01:43.329Z,22.60
2023-05-24T12:04:10.809Z,22.60
2023-05-24T12:06:42.436Z,22.60
2023-05-24T12:09:13.436Z,22.60
2023-05-24T12:11:46.207Z,22.60
2023-05-24T12:14:27.636Z,22.60
2023-05-24T12:16:57.897Z,22.60
2023-05-24T12:19:33.932Z,22.61
2023-05-24T12:22:05.189Z,22.61
2023-05-24T12:24:32.836Z,22.62
2023-05-24T12:27:02.239Z,22.61
2023-05-24T12:29:41.173Z,22.61
2023-05-24T12:32:15.288Z,22.62
2023-05-24T12:34:45.444Z,22.61
2023-05-24T12:37:13.853Z,22.65
2023-05-24T12:39:43.553Z,22.64
2023-05-24T12:42:13.252Z,22.63
2023-05-24T12:44:40.369Z,22.63
2023-05-24T12:47:08.448Z,22.64
2023-05-24T12:49:35.448Z,22.64
2023-05-24T12:52:02.424Z,22.64
2023-05-24T12:54:29.952Z,22.64
2023-05-24T12:56:57.828Z,22.66
2023-05-24T12:59:26.118Z,22.65
2023-05-24T13:01:53.517Z,22.66
2023-05-24T13:04:22.290Z,22.66
2023-05-24T13:06:49.468Z,22.66
2023-05-24T13:09:19.371Z,22.66
2023-05-24T13:11:46.699Z,22.67
2023-05-24T13:14:13.585Z,22.69
2023-05-24T13:16:40.490Z,22.69
2023-05-24T13:19:07.181Z,22.69
2023-05-24T13:21:34.044Z,22.69
2023-05-24T13:24:00.860Z,22.70
2023-05-24T13:26:27.801Z,22.70
2023-05-24T13:29:26.580Z,22.70
2023-05-24T13:31:41.888Z,22.72
2023-05-24T13:34:12.275Z,22.72
2023-05-24T13:36:39.622Z,22.72
2023-05-24T13:41:39.647Z,22.72
2023-05-24T13:44:07.164Z,22.73
2023-05-24T13:46:34.659Z,22.74
2023-05-24T13:49:01.611Z,22.73
2023-05-24T13:51:29.148Z,22.74
2023-05-24T13:53:56.395Z,22.75
2023-05-24T13:56:24.365Z,22.76
2023-05-24T13:58:52.459Z,22.75
2023-05-24T14:01:19.794Z,22.75
2023-05-24T14:03:46.624Z,22.78
2023-05-24T14:06:13.587Z,22.77
2023-05-24T14:08:40.766Z,22.78
2023-05-24T14:11:07.612Z,22.78
2023-05-24T14:16:05.359Z,22.80
2023-05-24T14:18:33.159Z,22.79
2023-05-24T14:20:59.904Z,22.81
2023-05-24T14:23:27.525Z,22.81
2023-05-24T14:25:54.210Z,22.81
2023-05-24T14:28:21.021Z,22.82
2023-05-24T14:30:47.750Z,22.81
2023-05-24T14:33:14.746Z,22.82
2023-05-24T14:35:42.690Z,22.83
2023-05-24T14:38:10.989Z,22.83
2023-05-24T14:40:39.856Z,22.85
2023-05-24T14:43:10.095Z,22.84
2023-05-24T14:45:45.794Z,22.85
2023-05-24T14:48:13.073Z,22.86
2023-05-24T14:50:41.016Z,22.84
2023-05-24T14:53:15.119Z,22.86
2023-05-24T14:55:43.501Z,22.87
2023-05-24T14:58:14.141Z,22.87
2023-05-24T15:00:42.587Z,22.87
2023-05-24T15:03:11.398Z,22.87
2023-05-24T15:05:38.817Z,22.88
2023-05-24T15:08:08.468Z,22.88
2023-05-24T15:10:35.300Z,22.88
2023-05-24T15:13:04.065Z,22.88
2023-05-24T15:15:31.511Z,22.89
2023-05-24T15:18:00.111Z,22.89
2023-05-24T15:20:27.288Z,22.89
2023-05-24T15:22:54.093Z,22.89
2023-05-24T15:25:21.203Z,22.90
2023-05-24T15:27:49.480Z,22.90
2023-05-24T15:30:17.565Z,22.91
2023-05-24T15:32:47.250Z,22.90
2023-05-24T15:35:14.325Z,22.90
2023-05-24T15:37:42.707Z,22.89
2023-05-24T15:40:10.645Z,22.89
2023-05-24T15:42:37.470Z,22.89
2023-05-24T15:45:04.550Z,22.89
2023-05-24T15:47:36.541Z,22.90
2023-05-24T15:50:04.019Z,22.90
2023-05-24T15:52:30.666Z,22.90
2023-05-24T15:54:57.444Z,22.90
2023-05-24T15:57:25.608Z,22.90
2023-05-24T15:59:53.504Z,22.92
2023-05-24T16:02:21.299Z,22.91
2023-05-24T16:04:48.311Z,22.92
2023-05-24T16:07:15.005Z,22.93
2023-05-24T16:09:41.681Z,22.92
2023-05-24T16:12:09.113Z,22.93
2023-05-24T16:14:36.019Z,22.94
2023-05-24T16:17:05.612Z,22.94
2023-05-24T16:19:32.630Z,22.94
2023-05-24T16:21:59.661Z,22.94
2023-05-24T16:24:27.710Z,22.95
2023-05-24T16:26:54.554Z,22.95
2023-05-24T16:29:21.531Z,22.95
2023-05-24T16:31:48.471Z,22.97
2023-05-24T16:34:16.628Z,22.96
2023-05-24T16:36:45.725Z,22.97
2023-05-24T16:39:13.260Z,22.97
2023-05-24T16:41:40.553Z,22.96
2023-05-24T16:44:07.319Z,22.97
2023-05-24T16:46:34.571Z,22.98
2023-05-24T16:49:01.315Z,22.97
2023-05-24T16:51:27.881Z,22.97
2023-05-24T16:53:54.772Z,22.98
2023-05-24T16:56:21.642Z,22.98
2023-05-24T16:58:48.302Z,22.97
2023-05-24T17:01:15.224Z,22.97
2023-05-24T17:03:42.146Z,22.97
2023-05-24T17:06:08.965Z,22.97
2023-05-24T17:08:36.770Z,22.98
2023-05-24T17:11:04.740Z,22.98
2023-05-24T17:13:31.851Z,22.97
2023-05-24T17:16:00.512Z,22.97
2023-05-24T17:18:30.467Z,22.97
2023-05-24T17:20:59.189Z,22.97
2023-05-24T17:23:27.064Z,22.96
2023-05-24T17:25:55.524Z,22.96
2023-05-24T17:28:27.707Z,22.95
2023-05-24T17:30:59.919Z,22.95
2023-05-24T17:33:28.444Z,22.95
2023-05-24T17:36:02.919Z,22.93
2023-05-24T17:38:33.242Z,22.94
2023-05-24T17:41:00.437Z,22.93
2023-05-24T17:43:30.286Z,22.92
2023-05-24T17:46:03.825Z,22.92
2023-05-24T17:48:41.207Z,22.91
2023-05-24T17:51:09.112Z,22.89
2023-05-24T17:53:38.339Z,22.83
2023-05-24T17:56:06.465Z,22.79
2023-05-24T17:58:36.362Z,22.76
2023-05-24T18:01:07.792Z,22.72
2023-05-24T18:03:42.255Z,22.69
2023-05-24T18:06:09.644Z,22.65
2023-05-24T18:08:39.024Z,22.63
2023-05-24T18:11:09.362Z,22.61
2023-05-24T18:13:37.588Z,22.60
2023-05-24T18:16:09.885Z,22.58
2023-05-24T18:18:38.024Z,22.56
2023-05-24T18:21:05.499Z,22.53
2023-05-24T18:23:37.684Z,22.51
2023-05-24T18:26:10.476Z,22.46
2023-05-24T18:28:38.161Z,22.45
2023-05-24T18:31:12.825Z,22.40
2023-05-24T18:33:42.581Z,22.38
2023-05-24T18:36:09.798Z,22.36
2023-05-24T18:38:37.555Z,22.34
2023-05-24T18:41:06.572Z,22.31
2023-05-24T18:43:35.694Z,22.29
2023-05-24T18:46:02.811Z,22.27
2023-05-24T18:48:29.829Z,22.28
2023-05-24T18:50:58.147Z,22.32
2023-05-24T18:53:25.791Z,22.36
2023-05-24T18:55:53.901Z,22.40
2023-05-24T18:58:22.381Z,22.44
2023-05-24T19:00:50.542Z,22.48
2023-05-24T19:03:20.167Z,22.51
2023-05-24T19:05:50.802Z,22.55
2023-05-24T19:08:18.515Z,22.56
2023-05-24T19:10:45.448Z,22.60
2023-05-24T19:13:12.074Z,22.63
2023-05-24T19:15:38.827Z,22.65
2023-05-24T19:18:06.386Z,22.69
2023-05-24T19:20:34.393Z,22.71
2023-05-24T19:23:01.205Z,22.74
2023-05-24T19:25:28.177Z,22.76
2023-05-24T19:27:59.866Z,22.78
2023-05-24T19:30:28.564Z,22.80
2023-05-24T19:32:57.208Z,22.80
2023-05-24T19:35:24.214Z,22.83
2023-05-24T19:37:53.503Z,22.84
2023-05-24T19:40:23.090Z,22.86
2023-05-24T19:42:50.038Z,22.85
2023-05-24T19:45:16.930Z,22.86
2023-05-24T19:47:48.026Z,22.88
2023-05-24T19:50:17.304Z,22.87
2023-05-24T19:52:47.192Z,22.88
2023-05-24T19:55:15.387Z,22.88
2023-05-24T19:57:42.219Z,22.87
2023-05-24T20:00:09.457Z,22.85
2023-05-24T20:02:36.774Z,22.84
2023-05-24T20:05:04.063Z,22.83
2023-05-24T20:07:32.193Z,22.81
2023-05-24T20:09:59.217Z,22.80
2023-05-24T20:12:26.652Z,22.79
2023-05-24T20:14:54.954Z,22.78
2023-05-24T20:17:23.488Z,22.75
2023-05-24T20:19:50.582Z,22.73
2023-05-24T20:22:20.769Z,22.71
2023-05-24T20:24:47.551Z,22.69
2023-05-24T20:27:14.893Z,22.68
2023-05-24T20:29:43.008Z,22.66
2023-05-24T20:32:10.183Z,22.64
2023-05-24T20:34:43.721Z,22.62
2023-05-24T20:37:13.262Z,22.58
2023-05-24T20:39:41.189Z,22.59
2023-05-24T20:42:08.430Z,22.56
2023-05-24T20:44:35.218Z,22.52
2023-05-24T20:47:03.085Z,22.49
2023-05-24T20:49:31.258Z,22.47
2023-05-24T20:51:58.336Z,22.44
2023-05-24T20:54:25.132Z,22.41
2023-05-24T20:56:52.333Z,22.39
2023-05-24T20:59:19.375Z,22.36
2023-05-24T21:01:46.287Z,22.34
2023-05-24T21:04:14.084Z,22.32
2023-05-24T21:06:40.706Z,22.29
2023-05-24T21:09:07.528Z,22.28
2023-05-24T21:11:34.238Z,22.24
2023-05-24T21:14:01.084Z,22.24
2023-05-24T21:16:28.264Z,22.21
2023-05-24T21:18:55.064Z,22.18
2023-05-24T21:21:24.831Z,22.16
2023-05-24T21:23:51.612Z,22.14
2023-05-24T21:26:18.272Z,22.11
2023-05-24T21:28:45.127Z,22.10
2023-05-24T21:31:11.925Z,22.08
2023-05-24T21:33:42.801Z,22.07
2023-05-24T21:36:10.171Z,22.05
2023-05-24T21:38:36.793Z,22.03
2023-05-24T21:41:05.254Z,22.02
2023-05-24T21:43:32.188Z,22.01
2023-05-24T21:45:58.837Z,21.99
2023-05-24T21:48:26.833Z,21.98
2023-05-24T21:50:53.439Z,21.96
2023-05-24T21:53:20.203Z,21.95
2023-05-24T21:55:46.943Z,21.94
2023-05-24T21:58:13.664Z,21.92
2023-05-24T22:00:40.537Z,21.91
2023-05-24T22:03:07.445Z,21.89
2023-05-24T22:05:34.232Z,21.85
2023-05-24T22:08:01.122Z,21.84
2023-05-24T22:10:27.806Z,21.84
2023-05-24T22:12:54.445Z,21.82
2023-05-24T22:15:21.320Z,21.80
2023-05-24T22:17:48.347Z,21.79
2023-05-24T22:20:15.287Z,21.77
2023-05-24T22:22:48.847Z,21.76
2023-05-24T22:25:19.480Z,21.73
2023-05-24T22:27:49.890Z,21.76
2023-05-24T22:30:17.636Z,21.73
2023-05-24T22:32:44.564Z,21.72
2023-05-24T22:35:11.477Z,21.70
2023-05-24T22:37:38.443Z,21.68
2023-05-24T22:40:05.619Z,21.67
2023-05-24T22:42:32.264Z,21.66
2023-05-24T22:44:59.060Z,21.65
2023-05-24T22:47:26.432Z,21.64
2023-05-24T22:49:55.901Z,21.63
2023-05-24T22:52:24.473Z,21.63
2023-05-24T22:54:51.424Z,21.61
2023-05-24T22:57:21.704Z,21.61
2023-05-24T22:59:49.541Z,21.59
2023-05-24T23:02:16.305Z,21.58
2023-05-24T23:04:47.484Z,21.58
2023-05-24T23:07:17.546Z,21.58
2023-05-24T23:09:44.450Z,21.57
2023-05-24T23:12:11.765Z,21.56
2023-05-24T23:14:41.482Z,21.56
2023-05-24T23:17:10.395Z,21.54
2023-05-24T23:19:42.916Z,21.53
2023-05-24T23:22:11.895Z,21.54
2023-05-24T23:24:44.674Z,21.52
2023-05-24T23:27:11.397Z,21.52
2023-05-24T23:29:39.097Z,21.51
2023-05-24T23:32:07.355Z,21.49
2023-05-24T23:34:34.116Z,21.49
2023-05-24T23:37:04.680Z,21.48
2023-05-24T23:39:31.482Z,21.48
2023-05-24T23:41:58.116Z,21.47
2023-05-24T23:44:25.701Z,21.47
2023-05-24T23:46:53.003Z,21.46
2023-05-24T23:49:20.478Z,21.46
2023-05-24T23:51:47.078Z,21.45
2023-05-24T23:54:14.734Z,21.45
2023-05-24T23:56:42.811Z,21.45
2023-05-24T23:59:09.433Z,21.45
